Time;durP1;ratioP1;P1;durP2;ratioP2;P2;SDS_P1;SDS_P2;PMS_P1;PMS_P2;Temp;Humidity;BMP_temperature;BMP_pressure;BME280_temperature;BME280_humidity;BME280_pressure;Samples;Min_cycle;Max_cycle;Signal;HPM_P1;HPM_P2
2022/10/16 00:00:02;;;;;;;8.97;7.60;;;;;;;12.28;100.00;100093.22;5092724;28;20199;-53
2022/10/16 00:02:28;;;;;;;11.43;8.67;;;;;;;12.20;100.00;100095.16;5092606;28;20223;-51
2022/10/16 00:04:55;;;;;;;8.00;7.20;;;;;;;12.11;100.00;100081.53;5092500;28;20203;-52
2022/10/16 00:07:22;;;;;;;11.73;7.80;;;;;;;12.19;100.00;100093.44;5092171;28;20611;-53
2022/10/16 00:09:49;;;;;;;9.47;7.57;;;;;;;12.19;100.00;100100.44;5092576;28;20191;-52
2022/10/16 00:12:18;;;;;;;8.63;7.83;;;;;;;12.11;100.00;100099.75;5092469;28;20199;-52
2022/10/16 00:14:44;;;;;;;9.10;7.80;;;;;;;12.16;100.00;100092.69;5092310;28;20195;-52
2022/10/16 00:17:11;;;;;;;15.10;8.60;;;;;;;12.18;100.00;100093.50;5091238;28;20196;-58
2022/10/16 00:19:38;;;;;;;8.57;7.53;;;;;;;12.16;100.00;100101.34;5091821;28;20199;-58
2022/10/16 00:22:05;;;;;;;8.90;8.00;;;;;;;12.19;100.00;100098.66;5092424;28;20213;-52
2022/10/16 00:24:32;;;;;;;12.27;7.13;;;;;;;12.19;100.00;100100.44;5091986;28;20248;-58
2022/10/16 00:26:59;;;;;;;9.03;8.17;;;;;;;12.28;100.00;100110.59;5092249;28;20274;-58
2022/10/16 00:29:27;;;;;;;8.90;7.97;;;;;;;12.26;100.00;100096.75;5091991;28;20195;-58
2022/10/16 00:31:54;;;;;;;12.93;8.53;;;;;;;12.21;100.00;100103.81;5091959;28;20195;-59
2022/10/16 00:34:21;;;;;;;9.33;8.43;;;;;;;12.17;100.00;100092.66;5091830;28;20202;-58
2022/10/16 00:36:48;;;;;;;12.93;8.57;;;;;;;12.16;100.00;100098.75;5091988;28;20195;-58
2022/10/16 00:39:15;;;;;;;10.33;8.93;;;;;;;11.99;100.00;100100.91;5091745;28;20205;-58
2022/10/16 00:41:42;;;;;;;10.30;9.20;;;;;;;11.94;100.00;100102.81;5091678;28;20214;-58
2022/10/16 00:44:44;;;;;;;10.43;9.23;;;;;;;11.84;100.00;100102.19;5091843;28;20290;-59
2022/10/16 00:47:14;;;;;;;12.40;9.50;;;;;;;11.84;100.00;100104.78;5091686;28;20199;-58
2022/10/16 00:49:41;;;;;;;11.67;8.90;;;;;;;11.83;100.00;100116.06;5091845;28;20195;-58
2022/10/16 00:52:08;;;;;;;15.37;8.63;;;;;;;11.73;100.00;100113.69;5091352;28;20243;-53
2022/10/16 00:54:35;;;;;;;16.67;9.60;;;;;;;11.54;100.00;100106.31;5091337;28;20282;-54
2022/10/16 00:57:06;;;;;;;16.77;10.07;;;;;;;11.45;100.00;100098.72;5091699;28;20191;-52
2022/10/16 00:59:36;;;;;;;20.27;10.77;;;;;;;11.51;100.00;100128.94;5091551;28;20191;-52
2022/10/16 01:02:06;;;;;;;14.90;9.97;;;;;;;11.55;100.00;100131.41;5091100;28;20732;-57
2022/10/16 01:04:39;;;;;;;16.07;10.10;;;;;;;11.54;100.00;100137.50;5091118;28;20219;-52
2022/10/16 01:07:15;;;;;;;15.50;10.50;;;;;;;11.47;100.00;100151.53;5091517;28;20199;-52
2022/10/16 01:09:53;;;;;;;14.57;10.10;;;;;;;11.45;100.00;100144.66;5091373;28;20209;-52
2022/10/16 01:12:27;;;;;;;14.13;10.33;;;;;;;11.39;100.00;100155.22;5091206;28;20210;-53
2022/10/16 01:14:58;;;;;;;15.30;9.73;;;;;;;11.32;100.00;100162.25;5091463;28;20199;-53
2022/10/16 01:17:31;;;;;;;16.33;10.33;;;;;;;11.32;100.00;100154.47;5091116;28;20203;-53
2022/10/16 01:20:08;;;;;;;12.83;9.53;;;;;;;11.36;100.00;100156.13;5091236;28;20198;-53
2022/10/16 01:22:44;;;;;;;17.13;9.97;;;;;;;11.31;100.00;100151.91;5090972;28;20617;-52
2022/10/16 01:25:20;;;;;;;15.43;10.87;;;;;;;11.33;100.00;100153.59;5090939;28;20195;-52
2022/10/16 01:27:49;;;;;;;11.67;9.20;;;;;;;11.30;100.00;100140.66;5091092;28;20203;-53
2022/10/16 01:30:21;;;;;;;12.20;9.40;;;;;;;11.23;100.00;100139.09;5090763;28;20203;-58
2022/10/16 01:32:53;;;;;;;18.57;10.17;;;;;;;11.29;100.00;100151.94;5090730;28;20726;-58
2022/10/16 01:35:26;;;;;;;15.23;10.07;;;;;;;11.19;100.00;100146.06;5090745;28;20200;-58
2022/10/16 01:37:58;;;;;;;10.63;9.57;;;;;;;11.22;100.00;100155.56;5090967;28;20286;-58
2022/10/16 01:40:28;;;;;;;11.63;10.43;;;;;;;11.23;100.00;100162.47;5090733;28;20225;-57
2022/10/16 01:43:01;;;;;;;12.33;9.53;;;;;;;11.17;100.00;100162.63;5090675;28;20227;-58
2022/10/16 01:45:31;;;;;;;10.50;9.47;;;;;;;11.13;100.00;100169.59;5090377;28;20204;-57
2022/10/16 01:48:03;;;;;;;13.27;10.10;;;;;;;11.08;100.00;100163.63;5090687;28;20249;-58
2022/10/16 01:50:33;;;;;;;11.30;9.63;;;;;;;11.16;100.00;100173.88;5090153;28;20242;-57
2022/10/16 01:53:01;;;;;;;15.50;10.13;;;;;;;11.14;100.00;100170.47;5090398;28;20236;-58
2022/10/16 01:55:32;;;;;;;12.57;9.80;;;;;;;11.12;100.00;100178.28;5090306;28;20203;-58
2022/10/16 01:58:02;;;;;;;10.90;9.57;;;;;;;11.11;100.00;100175.72;5090297;28;20202;-52
2022/10/16 02:00:31;;;;;;;11.13;9.60;;;;;;;11.09;100.00;100185.28;5090033;28;20199;-53
2022/10/16 02:03:01;;;;;;;10.53;9.37;;;;;;;11.08;100.00;100167.97;5090336;28;20197;-53
2022/10/16 02:05:33;;;;;;;11.57;9.20;;;;;;;11.12;100.00;100175.69;5089983;28;20205;-53
2022/10/16 02:08:00;;;;;;;11.10;9.40;;;;;;;11.11;100.00;100170.50;5090308;28;20206;-53
2022/10/16 02:10:30;;;;;;;9.70;8.87;;;;;;;11.16;100.00;100179.09;5090007;28;20310;-52
2022/10/16 02:13:04;;;;;;;11.33;9.60;;;;;;;11.15;100.00;100169.56;5090152;28;20206;-53
2022/10/16 02:15:31;;;;;;;11.13;10.00;;;;;;;11.05;100.00;100153.31;5089890;28;20201;-57
2022/10/16 02:17:58;;;;;;;13.63;9.97;;;;;;;11.12;100.00;100167.03;5090290;28;20226;-58
2022/10/16 02:20:30;;;;;;;11.80;9.67;;;;;;;11.04;100.00;100169.78;5090010;28;20227;-58
2022/10/16 02:22:57;;;;;;;14.23;10.00;;;;;;;11.03;100.00;100182.81;5089917;28;20195;-52
2022/10/16 02:25:31;;;;;;;10.43;9.43;;;;;;;11.01;100.00;100177.66;5090192;28;20737;-52
2022/10/16 02:28:04;;;;;;;14.80;10.30;;;;;;;10.98;100.00;100177.69;5090027;28;20195;-52
2022/10/16 02:30:36;;;;;;;13.20;10.40;;;;;;;10.85;100.00;100184.88;5089625;28;20199;-53
2022/10/16 02:33:09;;;;;;;11.07;9.97;;;;;;;10.72;100.00;100172.16;5089810;28;20197;-53
2022/10/16 02:35:37;;;;;;;12.40;10.20;;;;;;;10.65;100.00;100179.19;5089510;28;20603;-52
2022/10/16 02:38:06;;;;;;;11.10;9.90;;;;;;;10.64;100.00;100181.81;5089923;28;20658;-52
2022/10/16 02:40:34;;;;;;;10.40;9.40;;;;;;;10.54;100.00;100179.41;5089667;28;20298;-52
2022/10/16 02:43:05;;;;;;;16.50;10.60;;;;;;;10.22;100.00;100147.97;5089810;28;20754;-53
2022/10/16 02:45:32;;;;;;;17.07;10.20;;;;;;;10.47;100.00;100188.19;5089396;28;20195;-53
2022/10/16 02:47:59;;;;;;;12.57;10.13;;;;;;;10.57;100.00;100194.06;5089604;28;20286;-53
2022/10/16 02:50:26;;;;;;;13.10;10.73;;;;;;;10.64;100.00;100193.06;5089464;28;20199;-53
2022/10/16 02:52:53;;;;;;;11.63;9.97;;;;;;;10.74;100.00;100192.00;5089393;28;20231;-52
2022/10/16 02:55:20;;;;;;;11.50;9.77;;;;;;;10.57;100.00;100173.31;5089318;28;20283;-52
2022/10/16 02:57:46;;;;;;;11.30;10.20;;;;;;;10.61;100.00;100198.31;5089510;28;20195;-53
2022/10/16 03:00:17;;;;;;;14.20;10.23;;;;;;;10.60;100.00;100195.75;5089309;28;20198;-52
2022/10/16 03:02:44;;;;;;;13.53;10.73;;;;;;;10.61;100.00;100200.91;5089498;28;20199;-54
2022/10/16 03:05:11;;;;;;;12.30;9.93;;;;;;;10.71;100.00;100212.00;5089153;28;20234;-53
2022/10/16 03:07:38;;;;;;;14.33;11.57;;;;;;;10.75;100.00;100206.72;5089554;28;20804;-59
2022/10/16 03:10:06;;;;;;;14.23;11.27;;;;;;;10.73;100.00;100213.66;5089282;28;20210;-58
2022/10/16 03:12:33;;;;;;;14.77;11.27;;;;;;;10.81;100.00;100205.75;5089347;28;20675;-58
2022/10/16 03:15:00;;;;;;;11.83;10.73;;;;;;;10.77;100.00;100197.16;5089241;28;20202;-58
2022/10/16 03:17:28;;;;;;;12.93;11.37;;;;;;;10.83;100.00;100211.78;5089261;28;20242;-58
2022/10/16 03:19:55;;;;;;;14.10;11.13;;;;;;;10.72;100.00;100217.13;5089143;28;20206;-53
2022/10/16 03:22:22;;;;;;;14.73;11.00;;;;;;;10.67;100.00;100220.72;5088994;28;20211;-52
2022/10/16 03:24:49;;;;;;;17.07;11.97;;;;;;;10.57;100.00;100214.84;5089876;28;20229;-53
2022/10/16 03:27:16;;;;;;;15.43;12.00;;;;;;;10.51;100.00;100225.31;5093085;28;20195;-52
2022/10/16 03:29:43;;;;;;;13.43;11.73;;;;;;;10.46;100.00;100222.81;5093408;28;20226;-53
2022/10/16 03:32:10;;;;;;;20.87;12.90;;;;;;;10.53;100.00;100224.41;5093383;28;20706;-53
2022/10/16 03:34:38;;;;;;;15.53;12.17;;;;;;;10.46;100.00;100217.63;5093233;28;20243;-53
2022/10/16 03:37:05;;;;;;;20.77;14.43;;;;;;;10.36;100.00;100204.84;5093313;28;20318;-53
2022/10/16 03:39:32;;;;;;;20.87;15.03;;;;;;;10.45;100.00;100218.50;5092763;28;20196;-53
2022/10/16 03:41:59;;;;;;;23.03;15.10;;;;;;;10.44;100.00;100221.13;5092925;28;20195;-53
2022/10/16 03:44:26;;;;;;;20.00;16.33;;;;;;;10.35;100.00;100226.47;5092725;28;20227;-53
2022/10/16 03:46:53;;;;;;;26.90;17.73;;;;;;;10.34;100.00;100229.94;5093059;28;20683;-53
2022/10/16 03:49:20;;;;;;;24.20;17.13;;;;;;;10.36;100.00;100236.81;5092646;28;20290;-53
2022/10/16 03:51:48;;;;;;;26.23;18.47;;;;;;;10.36;100.00;100228.19;5092704;28;20749;-53
2022/10/16 03:54:15;;;;;;;24.80;17.07;;;;;;;10.29;100.00;100230.00;5092845;28;20225;-53
2022/10/16 03:56:42;;;;;;;30.60;18.80;;;;;;;10.26;100.00;100242.19;5092475;28;20199;-52
2022/10/16 03:59:09;;;;;;;27.40;18.47;;;;;;;10.22;100.00;100236.19;5092798;28;20203;-51
2022/10/16 04:01:36;;;;;;;32.27;20.60;;;;;;;10.21;100.00;100241.41;5092227;28;20202;-57
2022/10/16 04:04:02;;;;;;;31.07;21.83;;;;;;;10.22;100.00;100238.78;5092589;28;20219;-58
2022/10/16 04:06:29;;;;;;;48.83;23.53;;;;;;;10.26;100.00;100247.38;5092223;28;20203;-57
2022/10/16 04:08:58;;;;;;;35.77;23.87;;;;;;;10.30;100.00;100244.69;5092532;28;20191;-59
2022/10/16 04:11:25;;;;;;;46.40;26.50;;;;;;;10.37;100.00;100235.94;5092186;28;20235;-58
2022/10/16 04:13:52;;;;;;;42.57;26.83;;;;;;;10.34;100.00;100242.91;5092480;28;20223;-58
2022/10/16 04:16:18;;;;;;;46.97;26.97;;;;;;;10.27;100.00;100239.53;5092235;28;20234;-58
2022/10/16 04:18:45;;;;;;;35.23;24.60;;;;;;;10.17;100.00;100236.22;5092282;28;20205;-57
2022/10/16 04:21:12;;;;;;;34.10;23.17;;;;;;;10.08;100.00;100236.34;5092266;28;20197;-57
2022/10/16 04:23:39;;;;;;;31.60;20.17;;;;;;;10.07;100.00;100237.22;5091798;28;20203;-58
2022/10/16 04:26:08;;;;;;;29.10;18.93;;;;;;;10.07;100.00;100245.00;5092207;28;20206;-58
2022/10/16 04:28:35;;;;;;;29.77;17.20;;;;;;;10.01;100.00;100245.13;5092028;28;20221;-58
2022/10/16 04:31:04;;;;;;;22.23;16.13;;;;;;;9.82;100.00;100221.19;5092137;28;20200;-52
2022/10/16 04:33:31;;;;;;;25.87;16.63;;;;;;;9.84;100.00;100247.94;5092028;28;20195;-53
2022/10/16 04:35:59;;;;;;;20.43;15.13;;;;;;;9.77;100.00;100241.16;5092162;28;20199;-53
2022/10/16 04:38:26;;;;;;;18.77;13.67;;;;;;;9.81;100.00;100249.75;5091190;28;20194;-53
2022/10/16 04:40:53;;;;;;;21.83;15.10;;;;;;;9.75;100.00;100240.31;5092018;28;20274;-52
2022/10/16 04:43:21;;;;;;;25.27;15.10;;;;;;;9.76;100.00;100249.78;5091593;28;20203;-52
2022/10/16 04:45:50;;;;;;;22.17;15.37;;;;;;;9.84;100.00;100244.50;5087722;28;20314;-58
2022/10/16 04:48:17;;;;;;;19.97;15.63;;;;;;;9.80;100.00;100250.63;5090801;28;20261;-57
2022/10/16 04:50:44;;;;;;;18.67;16.67;;;;;;;9.79;100.00;100252.34;5090422;28;20601;-57
2022/10/16 04:53:11;;;;;;;28.83;18.47;;;;;;;9.74;100.00;100251.53;5090996;28;20223;-57
2022/10/16 04:55:38;;;;;;;34.17;22.87;;;;;;;9.71;100.00;100253.31;5090193;28;20219;-56
2022/10/16 04:58:05;;;;;;;38.30;25.47;;;;;;;9.74;100.00;100261.06;5090005;28;20234;-59
2022/10/16 05:00:34;;;;;;;41.37;28.27;;;;;;;9.65;100.00;100251.69;5090701;28;20310;-57
2022/10/16 05:03:01;;;;;;;43.63;27.73;;;;;;;9.80;100.00;100263.59;5090931;28;20253;-57
2022/10/16 05:05:28;;;;;;;45.63;30.53;;;;;;;9.84;100.00;100267.84;5090797;28;20227;-52
2022/10/16 05:07:55;;;;;;;40.83;28.07;;;;;;;9.82;100.00;100270.44;5090686;28;20219;-52
2022/10/16 05:10:22;;;;;;;31.00;23.50;;;;;;;9.91;100.00;100271.22;5090909;28;20219;-52
2022/10/16 05:12:49;;;;;;;32.23;20.93;;;;;;;9.93;100.00;100278.06;5090534;28;20227;-53
2022/10/16 05:15:16;;;;;;;22.70;15.03;;;;;;;10.12;100.00;100279.53;5090274;28;20702;-52
2022/10/16 05:17:45;;;;;;;14.73;12.00;;;;;;;10.45;100.00;100282.53;5090289;28;20198;-54
2022/10/16 05:20:12;;;;;;;17.50;13.20;;;;;;;10.77;100.00;100284.59;5091237;28;20199;-53
2022/10/16 05:22:38;;;;;;;15.20;12.30;;;;;;;11.41;100.00;100291.16;5090749;28;20586;-53
2022/10/16 05:25:06;;;;;;;15.43;12.30;;;;;;;12.66;100.00;100292.72;5090505;28;20234;-54
2022/10/16 05:27:33;;;;;;;12.93;11.63;;;;;;;13.83;100.00;100299.13;5090524;28;20577;-60
2022/10/16 05:30:00;;;;;;;16.23;10.83;;;;;;;14.95;93.50;100304.28;5090812;28;20246;-58
2022/10/16 05:32:27;;;;;;;14.90;10.23;;;;;;;16.07;86.48;100309.81;5090594;28;20595;-59
2022/10/16 05:34:55;;;;;;;16.53;11.47;;;;;;;17.08;81.00;100315.28;5090781;28;20191;-60
2022/10/16 05:37:22;;;;;;;17.27;12.40;;;;;;;17.99;76.35;100326.13;5091097;28;20195;-53
2022/10/16 05:39:49;;;;;;;21.83;15.70;;;;;;;18.26;73.89;100330.13;5090637;28;20195;-53
2022/10/16 05:42:16;;;;;;;29.47;21.97;;;;;;;19.03;71.25;100327.22;5091181;28;20206;-53
2022/10/16 05:44:43;;;;;;;30.75;17.63;;;;;;;19.96;67.65;100333.75;5090607;28;20226;-54
2022/10/16 05:47:10;;;;;;;21.52;16.63;;;;;;;21.23;62.91;100353.78;5090671;28;20199;-53
2022/10/16 05:49:37;;;;;;;16.95;12.10;;;;;;;21.96;59.52;100362.53;5090275;28;20200;-53
2022/10/16 05:52:06;;;;;;;15.48;10.88;;;;;;;22.19;57.23;100367.25;5090225;28;20320;-53
2022/10/16 05:54:33;;;;;;;14.48;10.77;;;;;;;23.01;55.44;100369.00;5090505;28;20205;-53
2022/10/16 05:56:59;;;;;;;11.90;10.73;;;;;;;23.54;52.82;100368.03;5090746;28;20218;-55
2022/10/16 05:59:26;;;;;;;12.60;10.13;;;;;;;23.71;51.51;100375.66;5090165;28;20198;-53
2022/10/16 06:01:54;;;;;;;13.65;11.18;;;;;;;23.95;49.89;100359.00;5090217;28;20192;-54
2022/10/16 06:04:20;;;;;;;10.43;9.18;;;;;;;24.42;48.03;100369.72;5106163;28;20222;-54
2022/10/16 06:06:47;;;;;;;14.38;13.27;;;;;;;24.66;47.70;100375.06;5110536;28;20670;-53
2022/10/16 06:09:16;;;;;;;10.68;9.35;;;;;;;25.45;45.73;100386.84;5110390;28;20195;-56
2022/10/16 06:11:43;;;;;;;9.43;7.90;;;;;;;26.40;43.00;100386.47;5110594;28;20286;-55
2022/10/16 06:14:10;;;;;;;13.35;10.38;;;;;;;26.26;42.78;100384.03;5110127;28;25109;-54
2022/10/16 06:16:38;;;;;;;8.85;8.13;;;;;;;26.76;41.65;100387.91;5110438;28;20671;-60
2022/10/16 06:19:06;;;;;;;12.98;8.10;;;;;;;27.01;40.54;100378.78;5110715;27;20687;-59
2022/10/16 06:21:33;;;;;;;12.23;10.02;;;;;;;27.49;39.24;100387.13;5110215;27;20285;-56
2022/10/16 06:24:00;;;;;;;9.85;9.05;;;;;;;27.72;38.72;100387.84;5110221;28;20209;-56
2022/10/16 06:26:30;;;;;;;12.77;10.18;;;;;;;28.21;37.94;100388.94;5110172;28;20696;-54
2022/10/16 06:28:57;;;;;;;23.83;18.80;;;;;;;28.76;36.53;100391.03;5110647;28;20194;-56
2022/10/16 06:31:27;;;;;;;9.85;9.05;;;;;;;29.33;35.38;100397.38;5110097;28;20780;-57
2022/10/16 06:33:55;;;;;;;9.57;8.82;;;;;;;29.57;34.55;100403.09;5109769;28;20195;-54
2022/10/16 06:36:23;;;;;;;8.20;7.50;;;;;;;29.27;35.29;100403.28;5109946;28;20682;-55
2022/10/16 06:38:50;;;;;;;8.95;7.90;;;;;;;28.51;36.45;100396.88;5110093;28;20720;-54
2022/10/16 06:41:20;;;;;;;11.18;10.10;;;;;;;26.43;39.87;100407.50;5110014;28;20213;-55
2022/10/16 06:43:48;;;;;;;8.38;7.50;;;;;;;24.39;44.83;100406.25;5110279;28;20585;-54
2022/10/16 06:46:17;;;;;;;10.10;8.02;;;;;;;22.84;49.22;100399.22;5110082;28;20253;-60
2022/10/16 06:48:44;;;;;;;10.00;7.72;;;;;;;21.46;53.15;100402.59;5110084;28;20301;-59
2022/10/16 06:51:13;;;;;;;9.88;8.98;;;;;;;20.54;56.56;100397.31;5109497;28;20230;-60
2022/10/16 06:53:43;;;;;;;10.27;8.23;;;;;;;19.52;59.96;100400.19;5109504;28;20209;-58
2022/10/16 06:56:11;;;;;;;9.88;9.07;;;;;;;18.84;62.75;100404.47;5110221;28;20221;-58
2022/10/16 06:58:38;;;;;;;10.05;9.18;;;;;;;18.16;65.82;100398.94;5103646;28;20201;-58
2022/10/16 07:01:07;;;;;;;10.07;9.27;;;;;;;17.41;69.48;100403.06;5085682;28;20281;-59
2022/10/16 07:03:34;;;;;;;11.55;9.57;;;;;;;16.90;71.35;100379.03;5088669;28;20188;-52
2022/10/16 07:06:03;;;;;;;11.93;9.20;;;;;;;16.85;72.66;100400.19;5088667;28;20219;-54
2022/10/16 07:08:33;;;;;;;10.27;9.23;;;;;;;16.66;74.10;100407.94;5088562;28;20672;-53
2022/10/16 07:11:01;;;;;;;12.00;9.13;;;;;;;16.56;74.68;100405.69;5088800;28;20589;-52
2022/10/16 07:13:28;;;;;;;9.73;8.73;;;;;;;16.29;77.03;100402.38;5088500;28;20191;-52
2022/10/16 07:15:55;;;;;;;9.80;8.70;;;;;;;16.31;77.48;100403.16;5088833;28;20312;-53
2022/10/16 07:18:26;;;;;;;12.30;8.73;;;;;;;16.45;77.00;100402.66;5089188;28;20202;-54
2022/10/16 07:20:54;;;;;;;9.03;8.33;;;;;;;16.51;76.81;100407.63;5088898;28;20226;-56
2022/10/16 07:23:21;;;;;;;11.30;8.70;;;;;;;16.44;77.24;100414.03;5089395;28;20195;-54
2022/10/16 07:25:54;;;;;;;10.33;9.27;;;;;;;16.52;77.45;100410.19;5089338;28;20222;-53
2022/10/16 07:28:21;;;;;;;8.90;8.03;;;;;;;16.36;78.38;100403.84;5089220;28;20199;-53
2022/10/16 07:30:48;;;;;;;15.47;9.37;;;;;;;16.27;78.77;100409.41;5089215;28;20203;-53
2022/10/16 07:33:15;;;;;;;8.40;7.83;;;;;;;16.13;79.37;100396.88;5089028;28;20203;-53
2022/10/16 07:35:50;;;;;;;9.70;8.67;;;;;;;15.98;80.33;100389.56;5088385;28;20235;-53
2022/10/16 07:38:17;;;;;;;9.77;8.63;;;;;;;15.90;81.21;100396.88;5088088;28;20604;-58
2022/10/16 07:40:44;;;;;;;10.87;8.40;;;;;;;16.11;80.80;100400.44;5086319;28;20199;-58
2022/10/16 07:43:11;;;;;;;11.43;8.70;;;;;;;16.19;79.10;100375.66;5087437;28;20195;-53
2022/10/16 07:45:39;;;;;;;14.73;9.53;;;;;;;16.47;78.45;100399.06;5087222;28;20211;-53
2022/10/16 07:48:06;;;;;;;11.43;8.90;;;;;;;16.55;77.78;100402.22;5086120;28;20191;-59
2022/10/16 07:50:33;;;;;;;13.63;9.20;;;;;;;16.48;78.03;100403.34;5087243;28;20581;-58
2022/10/16 07:53:01;;;;;;;9.67;8.70;;;;;;;16.42;78.63;100397.50;5084057;28;20224;-59
2022/10/16 07:55:28;;;;;;;11.03;9.20;;;;;;;16.23;79.48;100402.63;5087514;28;20218;-58
2022/10/16 07:57:55;;;;;;;12.90;9.87;;;;;;;16.21;79.76;100391.34;5086996;28;20613;-59
2022/10/16 08:00:22;;;;;;;10.87;9.20;;;;;;;16.40;79.05;100394.94;5086743;28;20227;-60
2022/10/16 08:02:49;;;;;;;10.60;9.33;;;;;;;16.47;78.21;100385.09;5086198;28;20605;-59
2022/10/16 08:05:16;;;;;;;13.00;9.57;;;;;;;16.54;78.41;100407.53;5086658;28;20227;-58
2022/10/16 08:07:43;;;;;;;10.17;8.77;;;;;;;16.65;77.37;100406.22;5087415;28;20258;-58
2022/10/16 08:10:18;;;;;;;9.73;8.73;;;;;;;16.56;78.07;100405.69;5087875;28;20206;-53
2022/10/16 08:12:44;;;;;;;15.07;9.50;;;;;;;16.59;78.05;100401.16;5089519;28;20282;-54
2022/10/16 08:15:12;;;;;;;10.20;9.20;;;;;;;16.54;78.28;100392.66;5089760;28;20206;-53
2022/10/16 08:17:39;;;;;;;17.13;9.40;;;;;;;16.55;78.55;100399.59;5090752;28;20274;-54
2022/10/16 08:20:07;;;;;;;13.77;8.93;;;;;;;16.58;77.72;100396.88;5091461;28;20232;-53
2022/10/16 08:22:34;;;;;;;9.30;7.87;;;;;;;16.74;77.34;100398.91;5091196;28;20213;-55
2022/10/16 08:25:01;;;;;;;9.00;8.23;;;;;;;16.80;75.92;100393.44;5090695;28;20215;-54
2022/10/16 08:27:33;;;;;;;9.07;8.33;;;;;;;16.64;76.55;100401.03;5090951;28;20282;-55
2022/10/16 08:30:00;;;;;;;9.00;8.30;;;;;;;16.58;77.53;100394.25;5091015;28;20585;-54
2022/10/16 08:32:27;;;;;;;9.17;8.27;;;;;;;16.69;76.94;100392.09;5091059;28;20298;-55
2022/10/16 08:34:54;;;;;;;10.67;8.23;;;;;;;16.74;76.28;100406.75;5091099;28;20318;-52
2022/10/16 08:37:21;;;;;;;8.97;8.23;;;;;;;16.66;75.53;100383.47;5091481;28;20705;-53
2022/10/16 08:39:48;;;;;;;9.87;7.60;;;;;;;16.76;75.20;100402.31;5091497;28;20191;-52
2022/10/16 08:42:35;;;;;;;8.30;7.60;;;;;;;16.88;74.27;100407.06;5091223;28;20684;-53
2022/10/16 08:45:29;;;;;;;8.03;7.27;;;;;;;16.85;73.67;100394.94;5091336;28;20241;-51
2022/10/16 08:48:09;;;;;;;8.00;7.40;;;;;;;16.79;73.55;100394.34;5088390;28;20213;-52
2022/10/16 08:50:39;;;;;;;12.07;7.70;;;;;;;16.62;73.91;100385.38;5090410;28;20214;-52
2022/10/16 08:53:07;;;;;;;8.20;6.70;;;;;;;16.75;73.31;100395.38;5091095;28;20594;-53
2022/10/16 08:55:42;;;;;;;8.07;7.30;;;;;;;16.54;73.53;100381.31;5090615;28;20199;-52
2022/10/16 08:58:14;;;;;;;7.00;6.50;;;;;;;16.63;73.66;100391.47;5090746;28;20286;-52
2022/10/16 09:00:44;;;;;;;7.37;6.80;;;;;;;16.58;72.38;100378.53;5090480;28;20702;-53
2022/10/16 09:03:20;;;;;;;8.43;6.93;;;;;;;16.68;71.55;100393.00;5090427;28;20206;-52
2022/10/16 09:06:04;;;;;;;7.83;6.10;;;;;;;16.72;70.57;100391.09;5090610;28;20325;-52
2022/10/16 09:08:41;;;;;;;7.33;6.60;;;;;;;16.80;70.23;100391.66;5090163;28;20663;-54
2022/10/16 09:11:15;;;;;;;7.43;6.73;;;;;;;16.92;70.44;100392.94;5088405;28;20270;-53
2022/10/16 09:13:52;;;;;;;7.43;6.80;;;;;;;16.99;69.74;100383.88;5091405;28;20693;-52
2022/10/16 09:16:27;;;;;;;11.00;7.40;;;;;;;16.99;68.87;100389.13;5091694;28;20576;-54
2022/10/16 09:19:03;;;;;;;7.67;6.90;;;;;;;16.96;69.54;100390.09;5089189;28;20195;-53
2022/10/16 09:21:31;;;;;;;7.43;6.70;;;;;;;16.98;69.29;100387.41;5090954;28;20290;-53
2022/10/16 09:24:01;;;;;;;7.73;7.00;;;;;;;16.99;68.12;100394.38;5090265;28;20218;-53
2022/10/16 09:26:28;;;;;;;6.90;6.37;;;;;;;17.06;67.91;100391.41;5090800;28;20707;-53
2022/10/16 09:28:55;;;;;;;8.73;7.20;;;;;;;17.04;66.88;100387.19;5091368;28;20387;-55
2022/10/16 09:31:23;;;;;;;8.00;6.73;;;;;;;16.93;66.93;100365.78;5090464;28;20199;-53
2022/10/16 09:33:56;;;;;;;6.40;5.87;;;;;;;17.03;66.28;100390.72;5091187;28;20560;-58
2022/10/16 09:36:25;;;;;;;6.57;5.97;;;;;;;17.06;65.75;100387.94;5090927;28;20564;-57
2022/10/16 09:39:03;;;;;;;7.00;6.50;;;;;;;17.04;65.43;100382.75;5091164;28;20675;-58
2022/10/16 09:41:30;;;;;;;6.63;5.83;;;;;;;17.14;64.84;100375.38;5090159;28;20221;-53
2022/10/16 09:44:00;;;;;;;6.07;5.53;;;;;;;17.06;64.07;100378.31;5090689;28;20203;-54
2022/10/16 09:46:31;;;;;;;8.37;5.73;;;;;;;17.10;64.19;100367.69;5089665;28;20306;-54
2022/10/16 09:48:59;;;;;;;6.70;6.00;;;;;;;17.14;64.45;100367.50;5090422;28;20195;-54
2022/10/16 09:51:29;;;;;;;6.00;5.43;;;;;;;17.32;64.23;100371.97;5090296;28;20727;-53
2022/10/16 09:53:58;;;;;;;9.63;5.80;;;;;;;17.43;63.84;100367.13;5090357;28;20191;-53
2022/10/16 09:56:27;;;;;;;5.90;5.50;;;;;;;17.56;63.07;100362.19;5090695;28;20627;-53
2022/10/16 09:58:59;;;;;;;13.43;7.23;;;;;;;17.65;65.74;100353.06;5090062;28;20199;-53
2022/10/16 10:01:32;;;;;;;7.00;6.30;;;;;;;17.82;62.38;100352.34;5089978;28;20205;-55
2022/10/16 10:04:02;;;;;;;6.15;5.57;;;;;;;17.89;60.64;100357.22;5090176;28;20195;-52
2022/10/16 10:06:32;;;;;;;6.47;5.97;;;;;;;17.87;59.65;100345.94;5090086;28;20624;-53
2022/10/16 10:09:03;;;;;;;5.70;5.20;;;;;;;17.98;57.47;100353.31;5090376;28;20199;-52
2022/10/16 10:11:49;;;;;;;6.38;5.53;;;;;;;17.93;56.93;100336.94;5090039;28;20211;-52
2022/10/16 10:14:25;;;;;;;8.02;5.57;;;;;;;18.00;56.07;100352.34;5090089;28;20205;-52
2022/10/16 10:17:10;;;;;;;6.32;5.72;;;;;;;18.04;57.16;100351.28;5090052;28;20195;-58
2022/10/16 10:19:40;;;;;;;6.43;5.85;;;;;;;18.00;58.28;100333.94;5089815;28;20242;-53
2022/10/16 10:22:18;;;;;;;11.05;5.90;;;;;;;18.12;59.35;100336.00;5089645;28;20277;-53
2022/10/16 10:24:45;;;;;;;6.30;5.38;;;;;;;18.19;56.82;100343.59;5090032;28;20616;-53
2022/10/16 10:27:18;;;;;;;6.35;5.70;;;;;;;18.30;56.09;100338.69;5089958;28;20233;-53
2022/10/16 10:29:55;;;;;;;6.95;6.25;;;;;;;18.28;54.80;100337.94;5089136;28;20203;-53
2022/10/16 10:32:33;;;;;;;5.95;5.32;;;;;;;18.18;53.24;100326.13;5089572;28;20592;-53
2022/10/16 10:35:16;;;;;;;5.68;5.10;;;;;;;18.16;53.01;100336.72;5089025;28;20195;-53
2022/10/16 10:38:14;;;;;;;6.22;5.20;;;;;;;18.30;52.65;100336.91;5089691;28;20202;-53
2022/10/16 10:40:50;;;;;;;5.70;5.13;;;;;;;18.16;53.27;100330.63;5088946;28;20199;-54
2022/10/16 10:43:30;;;;;;;4.95;4.60;;;;;;;18.08;53.34;100328.31;5089242;28;20205;-53
2022/10/16 10:46:02;;;;;;;5.75;5.22;;;;;;;18.06;54.04;100320.50;5089582;28;20231;-53
2022/10/16 10:48:55;;;;;;;5.32;4.93;;;;;;;18.21;53.49;100324.22;5089494;28;20739;-53
2022/10/16 10:51:29;;;;;;;6.72;5.05;;;;;;;18.20;53.18;100324.28;5089185;28;20231;-53
2022/10/16 10:54:06;;;;;;;4.38;4.18;;;;;;;18.30;52.43;100322.91;5088448;28;20191;-53
2022/10/16 10:56:45;;;;;;;5.43;5.00;;;;;;;18.04;52.77;100292.63;5089316;28;20190;-53
2022/10/16 10:59:49;;;;;;;6.57;5.13;;;;;;;18.17;53.21;100314.78;5089195;28;20187;-53
2022/10/16 11:02:23;;;;;;;7.22;5.00;;;;;;;18.30;54.85;100315.03;5087179;28;20199;-53
2022/10/16 11:05:29;;;;;;;6.25;5.22;;;;;;;18.34;52.96;100311.34;5086369;28;20190;-59
2022/10/16 11:08:00;;;;;;;7.60;5.78;;;;;;;18.35;53.18;100310.41;5084540;28;20266;-52
2022/10/16 11:10:32;;;;;;;6.10;5.60;;;;;;;18.37;53.60;100314.69;5086130;28;20197;-58
2022/10/16 11:13:07;;;;;;;5.60;5.15;;;;;;;18.25;52.53;100290.75;5086831;28;20191;-59
2022/10/16 11:15:40;;;;;;;5.55;5.10;;;;;;;18.22;52.50;100294.38;5086732;28;20191;-59
2022/10/16 11:18:12;;;;;;;5.32;4.93;;;;;;;18.39;53.61;100311.97;5087983;28;20188;-59
2022/10/16 11:20:44;;;;;;;5.53;5.00;;;;;;;18.41;52.81;100294.34;5085746;28;20342;-59
2022/10/16 11:23:19;;;;;;;5.65;5.15;;;;;;;18.40;51.81;100296.09;5087866;28;20195;-59
2022/10/16 11:25:47;;;;;;;6.28;5.13;;;;;;;18.26;52.33;100302.97;5085427;28;20209;-58